createdAt,value
2018-12-21T00:03:36.896Z,7.40
2018-12-21T00:08:37.744Z,7.43
2018-12-21T00:13:39.173Z,7.48
2018-12-21T00:18:40.343Z,7.40
2018-12-21T00:23:41.398Z,7.47
2018-12-21T00:28:42.602Z,7.39
2018-12-21T00:33:43.606Z,7.26
2018-12-21T00:38:44.433Z,7.30
2018-12-21T00:43:45.296Z,7.32
2018-12-21T00:48:46.857Z,7.41
2018-12-21T00:53:47.751Z,7.41
2018-12-21T00:58:48.558Z,7.48
2018-12-21T01:03:49.659Z,7.52
2018-12-21T01:08:50.578Z,7.48
2018-12-21T01:13:51.508Z,7.50
2018-12-21T01:18:52.215Z,7.60
2018-12-21T01:23:52.930Z,7.37
2018-12-21T01:28:53.686Z,7.49
2018-12-21T01:33:54.520Z,7.59
2018-12-21T01:38:55.385Z,7.64
2018-12-21T01:43:56.334Z,7.63
2018-12-21T01:48:57.145Z,7.61
2018-12-21T01:53:58.000Z,7.65
2018-12-21T01:58:58.997Z,7.71
2018-12-21T02:04:00.170Z,7.74
2018-12-21T02:09:00.871Z,7.77
2018-12-21T02:14:01.756Z,7.73
2018-12-21T02:19:04.875Z,7.74
2018-12-21T02:24:05.802Z,7.72
2018-12-21T02:29:07.034Z,7.66
2018-12-21T02:34:08.134Z,7.78
2018-12-21T02:39:09.027Z,7.76
2018-12-21T02:44:09.979Z,7.83
2018-12-21T02:49:10.866Z,7.75
2018-12-21T02:54:13.014Z,7.82
2018-12-21T02:59:13.906Z,7.71
2018-12-21T03:04:14.693Z,7.78
2018-12-21T03:09:15.878Z,7.68
2018-12-21T03:14:16.724Z,7.77
2018-12-21T03:19:17.645Z,7.78
2018-12-21T03:24:18.396Z,7.64
2018-12-21T03:29:19.268Z,7.63
2018-12-21T03:34:19.949Z,7.68
2018-12-21T03:39:20.999Z,7.65
2018-12-21T03:44:21.845Z,7.61
2018-12-21T03:49:22.833Z,7.63
2018-12-21T03:54:23.724Z,7.68
2018-12-21T03:59:24.494Z,7.69
2018-12-21T04:04:25.360Z,7.55
2018-12-21T04:09:26.060Z,7.62
2018-12-21T04:14:26.842Z,7.74
2018-12-21T04:19:27.523Z,7.73
2018-12-21T04:24:28.269Z,7.74
2018-12-21T04:29:29.124Z,7.71
2018-12-21T04:34:29.795Z,7.77
2018-12-21T04:39:30.629Z,7.59
2018-12-21T04:44:31.332Z,7.44
2018-12-21T04:49:32.222Z,7.41
2018-12-21T04:54:32.959Z,7.41
2018-12-21T04:59:33.782Z,7.52
2018-12-21T05:04:34.607Z,7.53
2018-12-21T05:09:35.334Z,7.37
2018-12-21T05:14:36.090Z,7.31
2018-12-21T05:19:36.823Z,7.25
2018-12-21T05:24:37.721Z,7.16
2018-12-21T05:29:39.703Z,6.91
2018-12-21T05:34:40.564Z,6.82
2018-12-21T05:39:41.393Z,6.78
2018-12-21T05:44:42.286Z,6.79
2018-12-21T05:49:43.047Z,6.77
2018-12-21T05:54:44.082Z,6.81
2018-12-21T06:05:04.988Z,6.78
2018-12-21T06:10:06.333Z,6.79
2018-12-21T06:15:07.753Z,6.79
2018-12-21T06:20:08.523Z,6.71
2018-12-21T06:25:09.399Z,6.77
2018-12-21T06:30:10.211Z,6.79
2018-12-21T06:40:32.085Z,6.91
2018-12-21T06:45:33.763Z,6.87
2018-12-21T06:50:34.520Z,6.86
2018-12-21T06:55:35.217Z,6.92
2018-12-21T07:00:35.894Z,6.96
2018-12-21T07:05:36.750Z,6.99
2018-12-21T07:10:37.546Z,7.14
2018-12-21T07:15:38.258Z,7.30
2018-12-21T07:20:38.954Z,7.22
2018-12-21T07:25:39.721Z,7.35
2018-12-21T07:30:40.598Z,7.48
2018-12-21T07:35:41.466Z,7.49
2018-12-21T07:40:42.344Z,7.54
2018-12-21T07:45:43.078Z,7.62
2018-12-21T07:50:43.791Z,7.73
2018-12-21T07:55:44.580Z,7.68
2018-12-21T08:00:45.361Z,7.79
2018-12-21T08:05:46.210Z,7.81
2018-12-21T08:10:47.067Z,7.83
2018-12-21T08:15:47.775Z,7.82
2018-12-21T08:20:48.628Z,7.85
2018-12-21T08:25:49.401Z,7.80
2018-12-21T08:30:50.220Z,7.93
2018-12-21T08:35:50.900Z,7.95
2018-12-21T08:40:51.664Z,7.95
2018-12-21T08:45:52.411Z,7.96
2018-12-21T08:50:53.227Z,7.97
2018-12-21T08:55:54.033Z,7.91
2018-12-21T09:00:54.822Z,7.99
2018-12-21T09:05:55.666Z,7.93
2018-12-21T09:10:56.574Z,8.00
2018-12-21T09:15:57.441Z,8.05
2018-12-21T09:20:58.389Z,8.16
2018-12-21T09:25:59.444Z,8.20
2018-12-21T09:31:00.443Z,8.20
2018-12-21T09:36:01.501Z,8.30
2018-12-21T09:41:02.914Z,8.28
2018-12-21T09:46:04.030Z,8.38
2018-12-21T09:51:05.919Z,8.36
2018-12-21T09:56:06.891Z,8.42
2018-12-21T10:01:07.636Z,8.44
2018-12-21T10:06:08.728Z,8.61
2018-12-21T10:11:10.134Z,8.95
2018-12-21T10:16:11.075Z,9.09
2018-12-21T10:21:12.312Z,9.13
2018-12-21T10:26:13.389Z,9.32
2018-12-21T10:31:14.257Z,9.37
2018-12-21T10:36:15.414Z,9.55
2018-12-21T10:41:16.377Z,9.66
2018-12-21T10:46:21.313Z,9.81
2018-12-21T10:51:22.616Z,9.87
2018-12-21T10:56:23.672Z,9.93
2018-12-21T11:01:24.801Z,10.02
2018-12-21T11:06:26.300Z,10.05
2018-12-21T11:11:28.284Z,10.09
2018-12-21T11:16:29.328Z,10.13
2018-12-21T11:21:30.059Z,10.27
2018-12-21T11:26:30.895Z,10.31
2018-12-21T11:31:31.740Z,10.33
2018-12-21T11:36:32.546Z,10.35
2018-12-21T11:41:33.348Z,10.42
2018-12-21T11:46:34.152Z,10.75
2018-12-21T11:51:34.874Z,10.77
2018-12-21T11:56:35.632Z,10.69
2018-12-21T12:01:36.395Z,10.67
2018-12-21T12:06:37.169Z,10.71
2018-12-21T12:11:38.006Z,10.84
2018-12-21T12:16:38.782Z,10.92
2018-12-21T12:21:39.790Z,10.96
2018-12-21T12:26:44.384Z,10.98
2018-12-21T12:31:43.286Z,11.13
2018-12-21T12:36:44.098Z,11.17
2018-12-21T12:41:45.039Z,11.23
2018-12-21T12:46:45.870Z,11.43
2018-12-21T12:51:46.714Z,11.29
2018-12-21T12:56:47.623Z,11.48
2018-12-21T13:01:48.431Z,11.51
2018-12-21T13:06:49.225Z,11.54
2018-12-21T13:11:50.029Z,11.19
2018-12-21T13:16:50.834Z,11.24
2018-12-21T13:21:51.637Z,11.32
2018-12-21T13:26:52.609Z,11.54
2018-12-21T13:31:53.382Z,11.41
2018-12-21T13:36:54.226Z,11.42
2018-12-21T13:41:55.000Z,11.65
2018-12-21T13:46:55.804Z,11.77
2018-12-21T13:51:56.632Z,11.89
2018-12-21T13:56:57.488Z,11.96
2018-12-21T14:01:58.226Z,12.00
2018-12-21T14:06:58.984Z,12.01
2018-12-21T14:11:59.756Z,11.98
2018-12-21T14:17:00.584Z,11.97
2018-12-21T14:22:01.410Z,12.26
2018-12-21T14:27:02.232Z,11.99
2018-12-21T14:32:04.081Z,11.95
2018-12-21T14:37:04.748Z,12.20
2018-12-21T14:42:05.463Z,12.13
2018-12-21T14:47:06.556Z,12.43
2018-12-21T14:52:07.683Z,12.53
2018-12-21T14:57:08.670Z,12.43
2018-12-21T15:02:09.819Z,12.60
2018-12-21T15:07:10.779Z,12.36
2018-12-21T15:12:12.408Z,12.60
2018-12-21T15:17:13.432Z,12.62
2018-12-21T15:22:14.267Z,12.34
2018-12-21T15:27:15.011Z,12.49
2018-12-21T15:32:15.984Z,12.51
2018-12-21T15:37:16.705Z,12.27
2018-12-21T15:42:18.297Z,12.39
2018-12-21T15:47:20.589Z,12.40
2018-12-21T15:52:21.440Z,12.60
2018-12-21T15:57:22.231Z,12.41
2018-12-21T16:02:23.107Z,12.35
2018-12-21T16:07:23.908Z,12.74
2018-12-21T16:12:25.049Z,12.77
2018-12-21T16:22:46.938Z,12.73
2018-12-21T16:27:47.771Z,12.64
2018-12-21T16:32:49.552Z,12.55
2018-12-21T16:37:50.369Z,12.83
2018-12-21T16:42:51.339Z,12.60
2018-12-21T16:47:52.133Z,12.50
2018-12-21T16:52:53.102Z,12.80
2018-12-21T16:57:53.883Z,12.70
2018-12-21T17:02:54.650Z,12.74
2018-12-21T17:07:55.380Z,12.92
2018-12-21T17:12:56.183Z,12.72
2018-12-21T17:17:56.951Z,12.87
2018-12-21T17:22:57.850Z,12.69
2018-12-21T17:27:58.893Z,12.71
2018-12-21T17:32:59.831Z,12.68
2018-12-21T17:38:00.770Z,12.90
2018-12-21T17:43:02.051Z,12.82
2018-12-21T17:48:04.245Z,12.77
2018-12-21T17:53:05.248Z,12.62
2018-12-21T17:58:06.378Z,12.77
2018-12-21T18:03:07.684Z,12.67
2018-12-21T18:13:30.234Z,12.80
2018-12-21T18:18:31.364Z,12.61
2018-12-21T18:23:32.960Z,12.59
2018-12-21T18:28:33.958Z,12.62
2018-12-21T18:33:35.122Z,12.73
2018-12-21T18:38:36.658Z,12.56
2018-12-21T18:43:37.726Z,12.64
2018-12-21T18:48:39.482Z,12.52
2018-12-21T18:53:41.102Z,12.51
2018-12-21T18:58:42.206Z,12.51
2018-12-21T19:21:33.453Z,12.24
2018-12-21T19:26:34.609Z,12.26
2018-12-21T19:31:35.629Z,12.35
2018-12-21T19:36:36.723Z,12.33
2018-12-21T19:41:37.998Z,12.22
2018-12-21T19:46:38.808Z,12.21
2018-12-21T20:02:36.881Z,12.13
2018-12-21T20:07:38.015Z,11.98
2018-12-21T20:12:39.205Z,11.98
2018-12-21T20:17:40.309Z,12.15
2018-12-21T20:22:42.007Z,11.85
2018-12-21T20:27:43.241Z,11.92
2018-12-21T20:32:44.614Z,12.04
2018-12-21T20:37:45.684Z,12.10
2018-12-21T20:42:46.741Z,12.06
2018-12-21T20:47:47.875Z,12.27
2018-12-21T20:52:48.949Z,11.93
2018-12-21T20:57:50.707Z,11.96
2018-12-21T21:02:54.839Z,12.00
2018-12-21T21:07:55.839Z,11.77
2018-12-21T21:12:56.862Z,11.95
2018-12-21T21:17:57.942Z,11.92
2018-12-21T21:22:58.895Z,12.00
2018-12-21T21:27:59.981Z,11.71
2018-12-21T21:33:01.012Z,11.69
2018-12-21T21:38:02.165Z,11.99
2018-12-21T21:43:03.536Z,11.72
2018-12-21T21:48:04.652Z,11.64
2018-12-21T21:53:05.690Z,11.66
2018-12-21T21:58:06.724Z,11.39
2018-12-21T22:03:07.803Z,11.68
2018-12-21T22:08:09.811Z,11.54
2018-12-21T22:13:10.867Z,11.37
2018-12-21T22:18:11.657Z,11.58
2018-12-21T22:23:12.647Z,11.35
2018-12-21T22:28:13.695Z,11.41
2018-12-21T22:33:14.770Z,11.49
2018-12-21T22:38:15.820Z,11.39
2018-12-21T22:43:16.895Z,11.26
2018-12-21T22:48:20.319Z,11.22
2018-12-21T22:53:23.598Z,11.19
2018-12-21T22:58:27.314Z,11.29
2018-12-21T23:16:55.432Z,11.03
2018-12-21T23:27:21.098Z,11.10
2018-12-21T23:32:22.464Z,10.81
2018-12-21T23:37:24.175Z,10.80
2018-12-21T23:42:25.270Z,10.88
2018-12-21T23:47:26.881Z,10.78
2018-12-21T23:52:28.507Z,10.67
2018-12-21T23:57:29.475Z,10.85
